This is the latest recevied weather packets stored in our database for station/object DO1SC. If no packets are shown the sender has not sent any weather packets the latest 1 day(s).
| Time | Temp. | Humidity | Pressure | Rain* | Wind** | Luminosity | Snow |
|---|---|---|---|---|---|---|---|
| 1777989330 | 18.33° C | 67% | 1008.3 hPa | - | 2.24 m/s, 306° | 208 W/m² | - |
| 1777988724 | 18.33° C | 68% | 1008.4 hPa | - | 2.24 m/s, 315° | 599 W/m² | - |
| 1777988134 | 18.33° C | 68% | 1008.4 hPa | - | 3.13 m/s, 291° | 571 W/m² | - |
| 1777987525 | 17.78° C | 68% | 1008.6 hPa | - | 2.68 m/s, 304° | 596 W/m² | - |
| 1777986936 | 17.78° C | 68% | 1008.6 hPa | - | 3.13 m/s, 293° | 519 W/m² | - |
| 1777986326 | 17.78° C | 68% | 1008.7 hPa | - | 2.24 m/s, 312° | 628 W/m² | - |
| 1777985717 | 17.22° C | 69% | 1008.8 hPa | - | 1.79 m/s, 310° | 563 W/m² | - |
| 1777985128 | 17.78° C | 70% | 1008.9 hPa | - | 2.24 m/s, 301° | 353 W/m² | - |
| 1777984520 | 17.78° C | 71% | 1008.9 hPa | - | 2.68 m/s, 291° | 478 W/m² | - |
| 1777983936 | 17.22° C | 73% | 1009.1 hPa | - | 2.24 m/s, 293° | 526 W/m² | - |
| 1777983323 | 16.67° C | 75% | 1009.2 hPa | - | 2.24 m/s, 291° | 672 W/m² | - |
| 1777982734 | 17.22° C | 74% | 1009.1 hPa | - | 2.24 m/s, 293° | 118 W/m² | - |
| 1777982140 | 17.78° C | 71% | 1009.1 hPa | - | 2.68 m/s, 298° | 120 W/m² | - |
| 1777981520 | 17.78° C | 70% | 1009.2 hPa | - | 2.24 m/s, 295° | 168 W/m² | - |
| 1777980928 | 18.89° C | 67% | 1009.3 hPa | - | 2.68 m/s, 312° | 175 W/m² | - |
| 1777980320 | 18.89° C | 65% | 1009.3 hPa | - | 2.24 m/s, 306° | 613 W/m² | - |
| 1777979735 | 18.33° C | 65% | 1009.4 hPa | - | 2.68 m/s, 295° | 745 W/m² | - |
| 1777979127 | 18.33° C | 66% | 1009.5 hPa | - | 2.24 m/s, 299° | 600 W/m² | - |
| 1777978534 | 18.33° C | 67% | 1009.5 hPa | - | 2.68 m/s, 301° | 729 W/m² | - |
| 1777977925 | 18.33° C | 67% | 1009.7 hPa | - | 2.24 m/s, 309° | 718 W/m² | - |
| 1777977317 | 17.78° C | 69% | 1009.7 hPa | - | 1.34 m/s, 299° | 675 W/m² | - |
| 1777976732 | 17.78° C | 70% | 1009.8 hPa | - | 2.24 m/s, 299° | 658 W/m² | - |
| 1777976120 | 17.78° C | 69% | 1010 hPa | - | 1.79 m/s, 307° | 667 W/m² | - |
| 1777975530 | 17.22° C | 72% | 1009.9 hPa | - | 2.24 m/s, 297° | 710 W/m² | - |
| 1777974922 | 17.22° C | 72% | 1010.1 hPa | - | 1.79 m/s, 288° | 686 W/m² | - |
* Rain since midnight (hover to see other rain measurements)
** Current wind speed in m/s (hover to see current wind gust speed)